WetterOnline ( http://www.wetteronline.de )

Wetter aktuell Lüchow

Aktuelles Wetter: Lüchow (18m)

6-stündlich | Neueste Meldungen
Ortszeit Temperatur Wetter
Di, 11.12. 1:00 4.9° C wolkig
Mo, 10.12. 19:00 3.9° C bewölkt
Mo, 10.12. 13:00 4.5° C Regen
Mo, 10.12. 7:00 3.8° C leichter Regen
Mo, 10.12. 1:00 5.0° C bewölkt
So, 09.12. 19:00 6.8° C bewölkt
So, 09.12. 13:00 7.7° C Sprühregen
So, 09.12. 7:00 6.9° C Sprühregen
Ortszeit Temperatur Wetter
Di, 11.12. 5:30 4.2° C bewölkt
Di, 11.12. 5:20 4.2° C bewölkt
Di, 11.12. 5:10 4.3° C bedeckt
Di, 11.12. 5:00 4.7° C wolkig
Di, 11.12. 4:50 4.7° C wolkig
Di, 11.12. 4:40 4.6° C leicht bewölkt
Di, 11.12. 4:30 4.7° C fast wolkenlos
Di, 11.12. 4:00 4.6° C fast wolkenlos
Di, 11.12. 3:30 4.8° C bedeckt
Di, 11.12. 3:00 5.2° C bewölkt
Di, 11.12. 2:30 5.1° C wolkig
Ortszeit Relative Feuchte Sichtweite
Di, 11.12. 1:00 85% 21 km
Mo, 10.12. 19:00 89% 40 km
Mo, 10.12. 13:00 86% 30 km
Mo, 10.12. 7:00 88% 19 km
Mo, 10.12. 1:00 83% 35 km
So, 09.12. 19:00 83% 45 km
So, 09.12. 13:00 85% 30 km
So, 09.12. 7:00 95% 3.3 km
Ortszeit Relative Feuchte Sichtweite
Di, 11.12. 5:30 83% 24 km
Di, 11.12. 5:20 83% -
Di, 11.12. 5:10 83% -
Di, 11.12. 5:00 82% 24 km
Di, 11.12. 4:50 82% -
Di, 11.12. 4:40 83% -
Di, 11.12. 4:30 82% 21 km
Di, 11.12. 4:00 84% 20 km
Di, 11.12. 3:30 83% 22 km
Di, 11.12. 3:00 82% 22 km
Di, 11.12. 2:30 83% 22 km
Ortszeit Niederschlagsmenge Niederschlagsart
Di, 11.12. 1:00 0.1 l/m2 in 6 Std. Regen
Mo, 10.12. 19:00 3 l/m2 in 12 Std. Regen
Mo, 10.12. 13:00 1 l/m2 in 6 Std. Regen
Mo, 10.12. 7:00 0.9 l/m2 in 12 Std. Regen
Mo, 10.12. 1:00 0.1 l/m2 in 6 Std. Regen
So, 09.12. 19:00 1 l/m2 in 12 Std. Regen
So, 09.12. 13:00 1 l/m2 in 6 Std. Regen
So, 09.12. 7:00 1 l/m2 in 12 Std. Regen
Ortszeit Niederschlagsmenge Niederschlagsart
Di, 11.12. 5:30 0.0 l/m2 in 1 Std. -
Di, 11.12. 5:20 keine Meldung -
Di, 11.12. 5:10 keine Meldung -
Di, 11.12. 5:00 0.0 l/m2 in 1 Std. -
Di, 11.12. 4:50 keine Meldung -
Di, 11.12. 4:40 keine Meldung -
Di, 11.12. 4:30 0.0 l/m2 in 1 Std. -
Di, 11.12. 4:00 0.0 l/m2 in 1 Std. -
Di, 11.12. 3:30 0.0 l/m2 in 1 Std. -
Di, 11.12. 3:00 0.0 l/m2 in 1 Std. -
Di, 11.12. 2:30 0.0 l/m2 in 1 Std. -
Ortszeit Stärke Spitze Richtung
km/h Bft. km/h Grad Sektor
Di, 11.12. 1:00 17 3 44 270° W
Mo, 10.12. 19:00 22 4 50 250° W
Mo, 10.12. 13:00 22 4 54 270° W
Mo, 10.12. 7:00 24 4 46 260° W
Mo, 10.12. 1:00 19 3 50 270° W
So, 09.12. 19:00 22 4 47 280° W
So, 09.12. 13:00 20 4 35 250° W
So, 09.12. 7:00 14 3 50 260° W
Ortszeit Stärke Spitze Richtung
km/h Bft. km/h Grad Sektor
Di, 11.12. 5:30 11 2 32 290° W
Di, 11.12. 5:20 11 2 - 290° W
Di, 11.12. 5:10 13 3 - 290° W
Di, 11.12. 5:00 15 3 37 290° W
Di, 11.12. 4:50 15 3 - 290° W
Di, 11.12. 4:40 13 3 - 300° NW
Di, 11.12. 4:30 14 3 32 300° NW
Di, 11.12. 4:00 14 3 32 300° NW
Di, 11.12. 3:30 14 3 32 300° NW
Di, 11.12. 3:00 14 3 36 290° W
Di, 11.12. 2:30 14 3 36 280° W
Ortszeit Untergrenze Bedeckung Gattung
total tief tief mittel hoch
Di, 11.12. 1:00 570 m 8/8 3/8 - - -
Mo, 10.12. 19:00 1170 m 7/8 7/8 - - -
Mo, 10.12. 13:00 570 m 7/8 7/8 - - -
Mo, 10.12. 7:00 420 m 8/8 1/8 - - -
Mo, 10.12. 1:00 900 m 7/8 7/8 - - -
So, 09.12. 19:00 690 m 7/8 7/8 - - -
So, 09.12. 13:00 570 m 8/8 7/8 - - -
So, 09.12. 7:00 360 m 8/8 8/8 - - -
Ortszeit Bedeckungsgrad in Achtel und Wolkenuntergrenze
Di, 11.12. 5:30 6(2700m) 7(4200m)
Di, 11.12. 5:20 6(2700m) 7(4200m)
Di, 11.12. 5:10 8(2700m) 8(4200m)
Di, 11.12. 5:00 5(2700m) 7(4500m)
Di, 11.12. 4:50 5(2700m) 7(4500m)
Di, 11.12. 4:40 2(2700m) 5(4500m)
Di, 11.12. 4:30 1(4500m)
Di, 11.12. 4:00 1(1800m)
Di, 11.12. 3:30 9 9 9
Di, 11.12. 3:00 8(3600m) 7(4500m)
Di, 11.12. 2:30 2(540m) 7(3600m) 8(4500m)
Ortszeit Luftdruck NN (hPa) Tendenz (hPa in 3 Std.)
Di, 11.12. 1:00 1013 + 0,6
Mo, 10.12. 19:00 1011 - 0,5
Mo, 10.12. 13:00 1012 + 0,7
Mo, 10.12. 7:00 1010 + 2,2
Mo, 10.12. 1:00 1005 + 3,1
So, 09.12. 19:00 998 + 3,5
So, 09.12. 13:00 992 + 1,4
So, 09.12. 7:00 988 + 2,3
Ortszeit Luftdruck NN (hPa) Tendenz (hPa in 3 Std.)
Di, 11.12. 5:30 1014 + 1,0
Di, 11.12. 5:20 1014 keine Meldung
Di, 11.12. 5:10 1014 keine Meldung
Di, 11.12. 5:00 1013 + 0,8
Di, 11.12. 4:50 1013 keine Meldung
Di, 11.12. 4:40 1013 keine Meldung
Di, 11.12. 4:30 1013 + 0,5
Di, 11.12. 4:00 1013 + 0,5
Di, 11.12. 3:30 1013 + 0,5
Di, 11.12. 3:00 1013 + 0,6
Di, 11.12. 2:30 1013 + 0,4
Ortszeit Schneehöhe (cm)
Di, 11.12. 1:00 0
Mo, 10.12. 19:00 0
Mo, 10.12. 13:00 0
Mo, 10.12. 7:00 0
Mo, 10.12. 1:00 0
So, 09.12. 19:00 0
So, 09.12. 13:00 0
So, 09.12. 7:00 0
Ortszeit Schneehöhe (cm)
Di, 11.12. 5:30 0
Di, 11.12. 5:20 0
Di, 11.12. 5:10 0
Di, 11.12. 5:00 0
Di, 11.12. 4:50 0
Di, 11.12. 4:40 0
Di, 11.12. 4:30 0
Di, 11.12. 4:00 0
Di, 11.12. 3:30 0
Di, 11.12. 3:00 0
Di, 11.12. 2:30 0
Link zu dieser Seite / Seite empfehlen

Das Wetter in ...